Regatta — V7DM3 — position and weather

sailwx.info

Track history (hours):
 
Tides and Currents Weather Stations Pressure Air Temp Water Temp Dewpoint Dewpoint Depression Visibility Wind Speed Wind Dir Waves Ship Positions

Regatta

Last reported at 2018-Feb-16 20:57 UTC. Time now 2018-Feb-19 10:10 UTC.
Position S 27°21' E 153°11'.

Length 180 m; draft 5.7 m.

Type: Passenger vessel. MMSI: 538001664.

Date/timePositionNaut miles runAvg speedWind from/ knotsBaromVisibWave heightAir tempDewpointWater temp
2018-Feb-16 20:57S 27°21' E 153°11'914.2
2018-Feb-16 20:19S 27°15' E 153°18'21 3.2
2018-Feb-16 13:51S 27°17' E 153°41'411.2
2018-Feb-16 13:29S 27°21' E 153°42'1711.3
2018-Feb-16 12:01S 27°37' E 153°47'013.8
2018-Feb-16 12:00S 27°37' E 153°47'611.6
2018-Feb-16 11:30S 27°42' E 153°49'611.8
2018-Feb-16 11:01S 27°48' E 153°51'611.9
2018-Feb-16 10:31S 27°54' E 153°53'612.2
2018-Feb-16 10:00S 27°60' E 153°55'611.8
2018-Feb-16 09:27S 28°06' E 153°56'512.1
2018-Feb-16 09:01S 28°11' E 153°56'612.0
2018-Feb-16 08:31S 28°17' E 153°57'612.0
2018-Feb-16 08:01S 28°23' E 153°57'611.9
2018-Feb-16 07:30S 28°29' E 153°58'23612.8
2018-Feb-15 13:01S 32°20' E 152°57'312.2
2018-Feb-15 12:44S 32°23' E 152°56'1312.0
2018-Feb-15 11:39S 32°33' E 152°46'212.7
2018-Feb-15 11:30S 32°34' E 152°44'612.6
2018-Feb-15 11:00S 32°37' E 152°38'612.7
2018-Feb-15 10:30S 32°40' E 152°31'612.6
2018-Feb-15 10:00S 32°43' E 152°25'613.0
2018-Feb-15 09:30S 32°46' E 152°18'713.1
2018-Feb-15 09:00S 32°49' E 152°11'613.0
2018-Feb-15 08:30S 32°53' E 152°04'612.9
2018-Feb-15 08:00S 32°55' E 151°57'612.8
2018-Feb-15 07:30S 32°57' E 151°50'3 6.1
2018-Feb-15 07:00S 32°55' E 151°47'0 0.4
2018-Feb-15 06:23S 32°55' E 151°46'0 0.0
2018-Feb-15 05:59S 32°55' E 151°46'0 0.0
2018-Feb-15 05:29S 32°55' E 151°46'0 0.0
2018-Feb-15 04:59S 32°55' E 151°46'0 0.0
2018-Feb-15 04:29S 32°55' E 151°46'0 0.0
2018-Feb-15 03:59S 32°55' E 151°46'0 0.0
2018-Feb-15 03:26S 32°55' E 151°46'0 0.0
2018-Feb-15 02:59S 32°55' E 151°46'0 0.0
2018-Feb-15 02:29S 32°55' E 151°46'0 0.0
2018-Feb-15 01:59S 32°55' E 151°46'0 0.0
2018-Feb-15 01:29S 32°55' E 151°46'0 0.0
2018-Feb-15 00:59S 32°55' E 151°46'0 0.0
2018-Feb-15 00:29S 32°55' E 151°46'0 0.0
2018-Feb-14 23:59S 32°55' E 151°46'0 0.0
2018-Feb-14 23:29S 32°55' E 151°46'0 0.0
2018-Feb-14 22:59S 32°55' E 151°46'0 0.0
2018-Feb-14 22:29S 32°55' E 151°46'0 0.0
2018-Feb-14 21:59S 32°55' E 151°46'0 0.0
2018-Feb-14 21:29S 32°55' E 151°46'0 0.0
2018-Feb-14 20:59S 32°55' E 151°46'0 0.0
2018-Feb-14 20:29S 32°55' E 151°46'0 0.4
2018-Feb-14 19:58S 32°55' E 151°47'2 5.0
2018-Feb-14 19:30S 32°54' E 151°49'510.7
2018-Feb-14 19:00S 32°59' E 151°52'611.6
2018-Feb-14 18:30S 33°04' E 151°53'3912.2
2018-Feb-14 15:19S 33°40' E 151°35'512.4
2018-Feb-14 14:54S 33°44' E 151°31'512.6
2018-Feb-14 14:30S 33°47' E 151°26'  
2018-Feb-10 19:09S 45°54' E 166°15'415.8
2018-Feb-10 18:55S 45°58' E 166°15'1614.8
2018-Feb-10 17:49S 46°12' E 166°25'2616.2
2018-Feb-10 16:11S 46°23' E 166°60'1416.4
2018-Feb-10 15:20S 46°27' E 167°20'516.6
2018-Feb-10 15:00S 46°28' E 167°27'816.5
2018-Feb-10 14:30S 46°31' E 167°39'917.1
2018-Feb-10 14:00S 46°33' E 167°50'917.3
2018-Feb-10 13:30S 46°36' E 168°02'816.9
2018-Feb-10 13:00S 46°39' E 168°14'816.2
2018-Feb-10 12:30S 46°41' E 168°25'815.8
2018-Feb-10 12:00S 46°41' E 168°37'815.4
2018-Feb-10 11:30S 46°43' E 168°48'815.6
2018-Feb-10 11:00S 46°43' E 168°59'815.9
2018-Feb-10 10:30S 46°43' E 169°11'815.9
2018-Feb-10 10:00S 46°42' E 169°22'815.8
2018-Feb-10 09:30S 46°40' E 169°33'816.0
2018-Feb-10 09:00S 46°38' E 169°45'815.9
2018-Feb-10 08:30S 46°36' E 169°56'815.8
2018-Feb-10 08:00S 46°33' E 170°07'815.9
2018-Feb-10 07:30S 46°27' E 170°15'815.9
2018-Feb-10 07:00S 46°22' E 170°23'815.8
2018-Feb-10 06:30S 46°16' E 170°31'815.6
2018-Feb-10 06:00S 46°11' E 170°39'815.5
2018-Feb-10 05:30S 46°04' E 170°44'1016.0
2018-Feb-10 04:54S 45°55' E 170°49'615.7
2018-Feb-10 04:30S 45°48' E 170°50'5 6.1
2018-Feb-10 03:37S 45°46' E 170°43'112.9
2018-Feb-10 03:30S 45°47' E 170°43'  
Track history (hours):
 
Tides and Currents Weather Stations Pressure Air Temp Water Temp Dewpoint Dewpoint Depression Visibility Wind Speed Wind Dir Waves Ship Positions

Regatta

Last reported at 2018-Feb-16 20:57 UTC. Time now 2018-Feb-19 10:10 UTC.
Position S 27°21' E 153°11'.

Length 180 m; draft 5.7 m.

Type: Passenger vessel. MMSI: 538001664.

Date/timePositionNaut miles runAvg speedWind from/ knotsBaromVisibWave heightAir tempDewpointWater temp
2018-Feb-16 20:57S 27°21' E 153°11'914.2
2018-Feb-16 20:19S 27°15' E 153°18'21 3.2
2018-Feb-16 13:51S 27°17' E 153°41'411.2
2018-Feb-16 13:29S 27°21' E 153°42'1711.3
2018-Feb-16 12:01S 27°37' E 153°47'013.8
2018-Feb-16 12:00S 27°37' E 153°47'611.6
2018-Feb-16 11:30S 27°42' E 153°49'611.8
2018-Feb-16 11:01S 27°48' E 153°51'611.9
2018-Feb-16 10:31S 27°54' E 153°53'612.2
2018-Feb-16 10:00S 27°60' E 153°55'611.8
2018-Feb-16 09:27S 28°06' E 153°56'512.1
2018-Feb-16 09:01S 28°11' E 153°56'612.0
2018-Feb-16 08:31S 28°17' E 153°57'612.0
2018-Feb-16 08:01S 28°23' E 153°57'611.9
2018-Feb-16 07:30S 28°29' E 153°58'23612.8
2018-Feb-15 13:01S 32°20' E 152°57'312.2
2018-Feb-15 12:44S 32°23' E 152°56'1312.0
2018-Feb-15 11:39S 32°33' E 152°46'212.7
2018-Feb-15 11:30S 32°34' E 152°44'612.6
2018-Feb-15 11:00S 32°37' E 152°38'612.7
2018-Feb-15 10:30S 32°40' E 152°31'612.6
2018-Feb-15 10:00S 32°43' E 152°25'613.0
2018-Feb-15 09:30S 32°46' E 152°18'713.1
2018-Feb-15 09:00S 32°49' E 152°11'613.0
2018-Feb-15 08:30S 32°53' E 152°04'612.9
2018-Feb-15 08:00S 32°55' E 151°57'612.8
2018-Feb-15 07:30S 32°57' E 151°50'3 6.1
2018-Feb-15 07:00S 32°55' E 151°47'0 0.4
2018-Feb-15 06:23S 32°55' E 151°46'0 0.0
2018-Feb-15 05:59S 32°55' E 151°46'0 0.0
2018-Feb-15 05:29S 32°55' E 151°46'0 0.0
2018-Feb-15 04:59S 32°55' E 151°46'0 0.0
2018-Feb-15 04:29S 32°55' E 151°46'0 0.0
2018-Feb-15 03:59S 32°55' E 151°46'0 0.0
2018-Feb-15 03:26S 32°55' E 151°46'0 0.0
2018-Feb-15 02:59S 32°55' E 151°46'0 0.0
2018-Feb-15 02:29S 32°55' E 151°46'0 0.0
2018-Feb-15 01:59S 32°55' E 151°46'0 0.0
2018-Feb-15 01:29S 32°55' E 151°46'0 0.0
2018-Feb-15 00:59S 32°55' E 151°46'0 0.0
2018-Feb-15 00:29S 32°55' E 151°46'0 0.0
2018-Feb-14 23:59S 32°55' E 151°46'0 0.0
2018-Feb-14 23:29S 32°55' E 151°46'0 0.0
2018-Feb-14 22:59S 32°55' E 151°46'0 0.0
2018-Feb-14 22:29S 32°55' E 151°46'0 0.0
2018-Feb-14 21:59S 32°55' E 151°46'0 0.0
2018-Feb-14 21:29S 32°55' E 151°46'0 0.0
2018-Feb-14 20:59S 32°55' E 151°46'0 0.0
2018-Feb-14 20:29S 32°55' E 151°46'0 0.4
2018-Feb-14 19:58S 32°55' E 151°47'2 5.0
2018-Feb-14 19:30S 32°54' E 151°49'510.7
2018-Feb-14 19:00S 32°59' E 151°52'611.6
2018-Feb-14 18:30S 33°04' E 151°53'3912.2
2018-Feb-14 15:19S 33°40' E 151°35'512.4
2018-Feb-14 14:54S 33°44' E 151°31'512.6
2018-Feb-14 14:30S 33°47' E 151°26'  
2018-Feb-10 19:09S 45°54' E 166°15'415.8
2018-Feb-10 18:55S 45°58' E 166°15'1614.8
2018-Feb-10 17:49S 46°12' E 166°25'2616.2
2018-Feb-10 16:11S 46°23' E 166°60'1416.4
2018-Feb-10 15:20S 46°27' E 167°20'516.6
2018-Feb-10 15:00S 46°28' E 167°27'816.5
2018-Feb-10 14:30S 46°31' E 167°39'917.1
2018-Feb-10 14:00S 46°33' E 167°50'917.3
2018-Feb-10 13:30S 46°36' E 168°02'816.9
2018-Feb-10 13:00S 46°39' E 168°14'816.2
2018-Feb-10 12:30S 46°41' E 168°25'815.8
2018-Feb-10 12:00S 46°41' E 168°37'815.4
2018-Feb-10 11:30S 46°43' E 168°48'815.6
2018-Feb-10 11:00S 46°43' E 168°59'815.9
2018-Feb-10 10:30S 46°43' E 169°11'815.9
2018-Feb-10 10:00S 46°42' E 169°22'815.8
2018-Feb-10 09:30S 46°40' E 169°33'816.0
2018-Feb-10 09:00S 46°38' E 169°45'815.9
2018-Feb-10 08:30S 46°36' E 169°56'815.8
2018-Feb-10 08:00S 46°33' E 170°07'815.9
2018-Feb-10 07:30S 46°27' E 170°15'815.9
2018-Feb-10 07:00S 46°22' E 170°23'815.8
2018-Feb-10 06:30S 46°16' E 170°31'815.6
2018-Feb-10 06:00S 46°11' E 170°39'815.5
2018-Feb-10 05:30S 46°04' E 170°44'1016.0
2018-Feb-10 04:54S 45°55' E 170°49'615.7
2018-Feb-10 04:30S 45°48' E 170°50'5 6.1
2018-Feb-10 03:37S 45°46' E 170°43'112.9
2018-Feb-10 03:30S 45°47' E 170°43'  

Dump ship's entire track history